sensor_id;sensor_type;location;lat;lon;timestamp;P1;durP1;ratioP1;P2;durP2;ratioP2
16822;SDS011;8528;49.976;11.858;2022-07-22T00:01:42;8.00;;;7.17;;
16822;SDS011;8528;49.976;11.858;2022-07-22T00:04:09;11.83;;;7.93;;
16822;SDS011;8528;49.976;11.858;2022-07-22T00:06:45;8.57;;;7.63;;
16822;SDS011;8528;49.976;11.858;2022-07-22T00:09:12;8.67;;;7.77;;
16822;SDS011;8528;49.976;11.858;2022-07-22T00:11:39;8.97;;;7.63;;
16822;SDS011;8528;49.976;11.858;2022-07-22T00:14:06;8.80;;;7.90;;
16822;SDS011;8528;49.976;11.858;2022-07-22T00:16:36;8.30;;;7.43;;
16822;SDS011;8528;49.976;11.858;2022-07-22T00:19:03;8.50;;;7.60;;
16822;SDS011;8528;49.976;11.858;2022-07-22T00:21:30;8.87;;;7.97;;
16822;SDS011;8528;49.976;11.858;2022-07-22T00:24:00;7.93;;;7.20;;
16822;SDS011;8528;49.976;11.858;2022-07-22T00:26:30;8.53;;;7.70;;
16822;SDS011;8528;49.976;11.858;2022-07-22T00:28:57;9.73;;;7.90;;
16822;SDS011;8528;49.976;11.858;2022-07-22T00:31:24;9.33;;;8.10;;
16822;SDS011;8528;49.976;11.858;2022-07-22T00:33:54;11.70;;;8.13;;
16822;SDS011;8528;49.976;11.858;2022-07-22T00:36:21;8.53;;;7.73;;
16822;SDS011;8528;49.976;11.858;2022-07-22T00:38:50;8.60;;;7.80;;
16822;SDS011;8528;49.976;11.858;2022-07-22T00:41:18;8.27;;;7.47;;
16822;SDS011;8528;49.976;11.858;2022-07-22T00:44:04;8.60;;;7.70;;
16822;SDS011;8528;49.976;11.858;2022-07-22T00:46:32;8.50;;;7.67;;
16822;SDS011;8528;49.976;11.858;2022-07-22T00:49:03;8.67;;;7.60;;
16822;SDS011;8528;49.976;11.858;2022-07-22T00:51:32;9.33;;;8.07;;
16822;SDS011;8528;49.976;11.858;2022-07-22T00:54:00;9.20;;;8.07;;
16822;SDS011;8528;49.976;11.858;2022-07-22T00:56:28;9.60;;;8.33;;
16822;SDS011;8528;49.976;11.858;2022-07-22T00:58:58;11.03;;;8.97;;
16822;SDS011;8528;49.976;11.858;2022-07-22T01:01:29;8.80;;;7.57;;
16822;SDS011;8528;49.976;11.858;2022-07-22T01:03:56;9.87;;;8.27;;
16822;SDS011;8528;49.976;11.858;2022-07-22T01:06:28;9.60;;;8.40;;
16822;SDS011;8528;49.976;11.858;2022-07-22T01:08:55;9.77;;;8.77;;
16822;SDS011;8528;49.976;11.858;2022-07-22T01:11:23;8.80;;;7.77;;
16822;SDS011;8528;49.976;11.858;2022-07-22T01:14:00;9.70;;;8.20;;
16822;SDS011;8528;49.976;11.858;2022-07-22T01:16:29;8.63;;;7.83;;
16822;SDS011;8528;49.976;11.858;2022-07-22T01:18:56;9.70;;;8.10;;
16822;SDS011;8528;49.976;11.858;2022-07-22T01:21:23;9.37;;;8.47;;
16822;SDS011;8528;49.976;11.858;2022-07-22T01:23:50;9.53;;;8.53;;
16822;SDS011;8528;49.976;11.858;2022-07-22T01:26:20;9.80;;;8.77;;
16822;SDS011;8528;49.976;11.858;2022-07-22T01:28:47;8.97;;;8.07;;
16822;SDS011;8528;49.976;11.858;2022-07-22T01:31:14;8.77;;;7.93;;
16822;SDS011;8528;49.976;11.858;2022-07-22T01:33:41;9.07;;;8.17;;
16822;SDS011;8528;49.976;11.858;2022-07-22T01:36:08;9.00;;;8.17;;
16822;SDS011;8528;49.976;11.858;2022-07-22T01:38:35;9.13;;;8.20;;
16822;SDS011;8528;49.976;11.858;2022-07-22T01:41:08;8.93;;;7.83;;
16822;SDS011;8528;49.976;11.858;2022-07-22T01:43:36;9.47;;;8.33;;
16822;SDS011;8528;49.976;11.858;2022-07-22T01:46:03;9.00;;;8.10;;
16822;SDS011;8528;49.976;11.858;2022-07-22T01:48:31;9.53;;;8.47;;
16822;SDS011;8528;49.976;11.858;2022-07-22T01:50:59;9.30;;;8.40;;
16822;SDS011;8528;49.976;11.858;2022-07-22T01:53:29;10.07;;;8.87;;
16822;SDS011;8528;49.976;11.858;2022-07-22T01:56:02;9.27;;;8.37;;
16822;SDS011;8528;49.976;11.858;2022-07-22T01:58:29;10.57;;;9.23;;
16822;SDS011;8528;49.976;11.858;2022-07-22T02:01:04;9.77;;;8.00;;
16822;SDS011;8528;49.976;11.858;2022-07-22T02:03:38;9.83;;;8.57;;
16822;SDS011;8528;49.976;11.858;2022-07-22T02:06:05;9.67;;;7.97;;
16822;SDS011;8528;49.976;11.858;2022-07-22T02:08:35;9.40;;;8.50;;
16822;SDS011;8528;49.976;11.858;2022-07-22T02:11:05;9.30;;;8.33;;
16822;SDS011;8528;49.976;11.858;2022-07-22T02:13:32;10.23;;;8.70;;
16822;SDS011;8528;49.976;11.858;2022-07-22T02:15:59;9.97;;;8.73;;
16822;SDS011;8528;49.976;11.858;2022-07-22T02:18:26;9.87;;;7.77;;
16822;SDS011;8528;49.976;11.858;2022-07-22T02:20:53;10.23;;;8.50;;
16822;SDS011;8528;49.976;11.858;2022-07-22T02:23:20;9.57;;;8.20;;
16822;SDS011;8528;49.976;11.858;2022-07-22T02:25:47;9.93;;;8.87;;
16822;SDS011;8528;49.976;11.858;2022-07-22T02:28:14;10.97;;;8.07;;
16822;SDS011;8528;49.976;11.858;2022-07-22T02:30:41;10.17;;;8.87;;
16822;SDS011;8528;49.976;11.858;2022-07-22T02:33:08;9.60;;;8.23;;
16822;SDS011;8528;49.976;11.858;2022-07-22T02:35:35;9.67;;;8.63;;
16822;SDS011;8528;49.976;11.858;2022-07-22T02:38:02;11.07;;;9.10;;
16822;SDS011;8528;49.976;11.858;2022-07-22T02:40:50;9.33;;;8.37;;
16822;SDS011;8528;49.976;11.858;2022-07-22T02:43:17;10.33;;;8.90;;
16822;SDS011;8528;49.976;11.858;2022-07-22T02:45:44;10.03;;;8.60;;
16822;SDS011;8528;49.976;11.858;2022-07-22T02:48:11;9.50;;;8.57;;
16822;SDS011;8528;49.976;11.858;2022-07-22T02:50:38;9.63;;;8.50;;
16822;SDS011;8528;49.976;11.858;2022-07-22T02:53:05;10.43;;;9.07;;
16822;SDS011;8528;49.976;11.858;2022-07-22T02:55:34;10.00;;;9.00;;
16822;SDS011;8528;49.976;11.858;2022-07-22T02:58:19;10.83;;;9.20;;
16822;SDS011;8528;49.976;11.858;2022-07-22T03:00:46;9.57;;;8.57;;
16822;SDS011;8528;49.976;11.858;2022-07-22T03:03:16;9.27;;;8.33;;
16822;SDS011;8528;49.976;11.858;2022-07-22T03:05:43;10.67;;;9.13;;
16822;SDS011;8528;49.976;11.858;2022-07-22T03:08:12;8.23;;;7.43;;
16822;SDS011;8528;49.976;11.858;2022-07-22T03:10:44;10.40;;;8.47;;
16822;SDS011;8528;49.976;11.858;2022-07-22T03:13:21;10.07;;;9.10;;
16822;SDS011;8528;49.976;11.858;2022-07-22T03:15:47;10.47;;;8.47;;
16822;SDS011;8528;49.976;11.858;2022-07-22T03:18:14;9.57;;;8.47;;
16822;SDS011;8528;49.976;11.858;2022-07-22T03:20:44;9.20;;;8.27;;
16822;SDS011;8528;49.976;11.858;2022-07-22T03:23:14;10.27;;;8.53;;
16822;SDS011;8528;49.976;11.858;2022-07-22T03:25:41;10.83;;;9.17;;
16822;SDS011;8528;49.976;11.858;2022-07-22T03:28:08;9.53;;;8.53;;
16822;SDS011;8528;49.976;11.858;2022-07-22T03:30:40;9.73;;;8.60;;
16822;SDS011;8528;49.976;11.858;2022-07-22T03:33:14;9.10;;;8.20;;
16822;SDS011;8528;49.976;11.858;2022-07-22T03:35:41;10.20;;;8.67;;
16822;SDS011;8528;49.976;11.858;2022-07-22T03:38:22;10.03;;;8.60;;
16822;SDS011;8528;49.976;11.858;2022-07-22T03:40:49;10.07;;;9.07;;
16822;SDS011;8528;49.976;11.858;2022-07-22T03:43:16;10.67;;;9.57;;
16822;SDS011;8528;49.976;11.858;2022-07-22T03:45:43;10.23;;;9.23;;
16822;SDS011;8528;49.976;11.858;2022-07-22T03:48:11;10.07;;;9.07;;
16822;SDS011;8528;49.976;11.858;2022-07-22T03:50:38;10.43;;;9.13;;
16822;SDS011;8528;49.976;11.858;2022-07-22T03:53:05;9.57;;;8.57;;
16822;SDS011;8528;49.976;11.858;2022-07-22T03:55:34;10.33;;;8.67;;
16822;SDS011;8528;49.976;11.858;2022-07-22T03:58:01;10.27;;;9.17;;
16822;SDS011;8528;49.976;11.858;2022-07-22T04:00:35;9.93;;;8.80;;
16822;SDS011;8528;49.976;11.858;2022-07-22T04:03:04;10.57;;;9.10;;
16822;SDS011;8528;49.976;11.858;2022-07-22T04:05:32;10.77;;;8.87;;
16822;SDS011;8528;49.976;11.858;2022-07-22T04:07:58;10.00;;;9.00;;
16822;SDS011;8528;49.976;11.858;2022-07-22T04:10:32;9.47;;;8.53;;
16822;SDS011;8528;49.976;11.858;2022-07-22T04:12:59;9.07;;;8.17;;
16822;SDS011;8528;49.976;11.858;2022-07-22T04:15:26;9.23;;;8.33;;
16822;SDS011;8528;49.976;11.858;2022-07-22T04:17:53;10.43;;;8.50;;
16822;SDS011;8528;49.976;11.858;2022-07-22T04:20:23;9.20;;;8.17;;
16822;SDS011;8528;49.976;11.858;2022-07-22T04:22:50;11.17;;;9.37;;
16822;SDS011;8528;49.976;11.858;2022-07-22T04:25:17;11.53;;;9.93;;
16822;SDS011;8528;49.976;11.858;2022-07-22T04:27:44;10.17;;;9.13;;
16822;SDS011;8528;49.976;11.858;2022-07-22T04:30:11;11.10;;;8.97;;
16822;SDS011;8528;49.976;11.858;2022-07-22T04:32:46;10.47;;;9.30;;
16822;SDS011;8528;49.976;11.858;2022-07-22T04:35:15;9.43;;;8.47;;
16822;SDS011;8528;49.976;11.858;2022-07-22T04:37:42;11.03;;;9.90;;
16822;SDS011;8528;49.976;11.858;2022-07-22T04:40:09;10.07;;;9.07;;
16822;SDS011;8528;49.976;11.858;2022-07-22T04:42:38;9.60;;;8.70;;
16822;SDS011;8528;49.976;11.858;2022-07-22T04:45:04;11.70;;;9.70;;
16822;SDS011;8528;49.976;11.858;2022-07-22T04:47:32;10.20;;;9.20;;
16822;SDS011;8528;49.976;11.858;2022-07-22T04:50:02;9.97;;;8.97;;
16822;SDS011;8528;49.976;11.858;2022-07-22T04:52:31;10.50;;;9.40;;
16822;SDS011;8528;49.976;11.858;2022-07-22T04:55:05;10.40;;;9.40;;
16822;SDS011;8528;49.976;11.858;2022-07-22T04:57:34;10.63;;;9.63;;
16822;SDS011;8528;49.976;11.858;2022-07-22T05:00:01;10.57;;;9.53;;
16822;SDS011;8528;49.976;11.858;2022-07-22T05:02:29;10.03;;;8.83;;
16822;SDS011;8528;49.976;11.858;2022-07-22T05:04:59;10.33;;;9.30;;
16822;SDS011;8528;49.976;11.858;2022-07-22T05:07:26;11.37;;;10.27;;
16822;SDS011;8528;49.976;11.858;2022-07-22T05:09:53;12.53;;;11.23;;
16822;SDS011;8528;49.976;11.858;2022-07-22T05:12:20;12.53;;;11.20;;
16822;SDS011;8528;49.976;11.858;2022-07-22T05:14:47;11.97;;;10.77;;
16822;SDS011;8528;49.976;11.858;2022-07-22T05:17:14;13.60;;;11.53;;
16822;SDS011;8528;49.976;11.858;2022-07-22T05:19:41;11.80;;;10.70;;
16822;SDS011;8528;49.976;11.858;2022-07-22T05:22:08;11.67;;;10.33;;
16822;SDS011;8528;49.976;11.858;2022-07-22T05:24:35;11.00;;;9.30;;
16822;SDS011;8528;49.976;11.858;2022-07-22T05:27:05;9.77;;;8.80;;
16822;SDS011;8528;49.976;11.858;2022-07-22T05:29:35;10.03;;;9.00;;
16822;SDS011;8528;49.976;11.858;2022-07-22T05:32:10;9.10;;;8.27;;
16822;SDS011;8528;49.976;11.858;2022-07-22T05:34:37;11.80;;;9.40;;
16822;SDS011;8528;49.976;11.858;2022-07-22T05:37:04;9.20;;;8.30;;
16822;SDS011;8528;49.976;11.858;2022-07-22T05:39:34;10.00;;;9.00;;
16822;SDS011;8528;49.976;11.858;2022-07-22T05:42:04;10.00;;;8.97;;
16822;SDS011;8528;49.976;11.858;2022-07-22T05:44:39;9.43;;;8.43;;
16822;SDS011;8528;49.976;11.858;2022-07-22T05:47:05;9.47;;;8.50;;
16822;SDS011;8528;49.976;11.858;2022-07-22T05:49:39;9.73;;;8.63;;
16822;SDS011;8528;49.976;11.858;2022-07-22T05:52:10;9.40;;;8.50;;
16822;SDS011;8528;49.976;11.858;2022-07-22T05:54:37;10.00;;;8.37;;
16822;SDS011;8528;49.976;11.858;2022-07-22T05:57:06;9.23;;;7.83;;
16822;SDS011;8528;49.976;11.858;2022-07-22T05:59:36;9.27;;;8.47;;
16822;SDS011;8528;49.976;11.858;2022-07-22T06:02:06;9.10;;;8.10;;
16822;SDS011;8528;49.976;11.858;2022-07-22T06:04:33;10.17;;;8.50;;
16822;SDS011;8528;49.976;11.858;2022-07-22T06:07:00;9.57;;;8.40;;
16822;SDS011;8528;49.976;11.858;2022-07-22T06:09:30;9.47;;;8.47;;
16822;SDS011;8528;49.976;11.858;2022-07-22T06:11:57;8.77;;;7.87;;
16822;SDS011;8528;49.976;11.858;2022-07-22T06:14:27;11.47;;;7.87;;
16822;SDS011;8528;49.976;11.858;2022-07-22T06:16:53;11.40;;;8.10;;
16822;SDS011;8528;49.976;11.858;2022-07-22T06:19:23;8.93;;;8.00;;
16822;SDS011;8528;49.976;11.858;2022-07-22T06:21:50;8.77;;;7.77;;
16822;SDS011;8528;49.976;11.858;2022-07-22T06:24:17;9.57;;;7.60;;
16822;SDS011;8528;49.976;11.858;2022-07-22T06:26:53;8.43;;;7.63;;
16822;SDS011;8528;49.976;11.858;2022-07-22T06:29:20;10.50;;;8.03;;
16822;SDS011;8528;49.976;11.858;2022-07-22T06:31:47;7.23;;;6.53;;
16822;SDS011;8528;49.976;11.858;2022-07-22T06:34:14;8.53;;;7.10;;
16822;SDS011;8528;49.976;11.858;2022-07-22T06:36:41;7.30;;;6.70;;
16822;SDS011;8528;49.976;11.858;2022-07-22T06:39:17;7.63;;;6.93;;
16822;SDS011;8528;49.976;11.858;2022-07-22T06:41:44;7.27;;;6.60;;
16822;SDS011;8528;49.976;11.858;2022-07-22T06:44:11;6.87;;;6.17;;
16822;SDS011;8528;49.976;11.858;2022-07-22T06:46:38;7.43;;;6.73;;
16822;SDS011;8528;49.976;11.858;2022-07-22T06:49:07;8.00;;;6.77;;
16822;SDS011;8528;49.976;11.858;2022-07-22T06:51:38;7.87;;;6.70;;
16822;SDS011;8528;49.976;11.858;2022-07-22T06:54:05;7.63;;;6.20;;
16822;SDS011;8528;49.976;11.858;2022-07-22T06:56:32;7.67;;;6.53;;
16822;SDS011;8528;49.976;11.858;2022-07-22T06:58:59;8.13;;;6.67;;
16822;SDS011;8528;49.976;11.858;2022-07-22T07:01:26;7.23;;;6.23;;
16822;SDS011;8528;49.976;11.858;2022-07-22T07:03:53;7.10;;;6.50;;
16822;SDS011;8528;49.976;11.858;2022-07-22T07:06:20;7.67;;;6.17;;
16822;SDS011;8528;49.976;11.858;2022-07-22T07:08:47;7.13;;;6.40;;
16822;SDS011;8528;49.976;11.858;2022-07-22T07:11:14;6.93;;;6.33;;
16822;SDS011;8528;49.976;11.858;2022-07-22T07:13:41;7.00;;;6.30;;
16822;SDS011;8528;49.976;11.858;2022-07-22T07:16:08;8.27;;;6.43;;
16822;SDS011;8528;49.976;11.858;2022-07-22T07:18:35;7.20;;;5.90;;
16822;SDS011;8528;49.976;11.858;2022-07-22T07:21:03;6.53;;;5.93;;
16822;SDS011;8528;49.976;11.858;2022-07-22T07:23:36;7.20;;;6.20;;
16822;SDS011;8528;49.976;11.858;2022-07-22T07:26:04;6.80;;;6.20;;
16822;SDS011;8528;49.976;11.858;2022-07-22T07:28:34;7.13;;;6.40;;
16822;SDS011;8528;49.976;11.858;2022-07-22T07:31:01;7.60;;;6.63;;
16822;SDS011;8528;49.976;11.858;2022-07-22T07:33:28;8.97;;;6.27;;
16822;SDS011;8528;49.976;11.858;2022-07-22T07:35:55;6.70;;;5.97;;
16822;SDS011;8528;49.976;11.858;2022-07-22T07:38:31;12.40;;;6.80;;
16822;SDS011;8528;49.976;11.858;2022-07-22T07:41:00;7.90;;;6.77;;
16822;SDS011;8528;49.976;11.858;2022-07-22T07:43:27;7.40;;;6.63;;
16822;SDS011;8528;49.976;11.858;2022-07-22T07:45:57;7.37;;;6.67;;
16822;SDS011;8528;49.976;11.858;2022-07-22T07:48:24;7.37;;;6.10;;
16822;SDS011;8528;49.976;11.858;2022-07-22T07:50:51;6.50;;;5.90;;
16822;SDS011;8528;49.976;11.858;2022-07-22T07:53:25;8.30;;;6.80;;
16822;SDS011;8528;49.976;11.858;2022-07-22T07:55:54;8.17;;;6.70;;
16822;SDS011;8528;49.976;11.858;2022-07-22T07:58:29;8.03;;;6.70;;
16822;SDS011;8528;49.976;11.858;2022-07-22T08:01:06;8.47;;;7.17;;
16822;SDS011;8528;49.976;11.858;2022-07-22T08:03:34;8.93;;;7.43;;
16822;SDS011;8528;49.976;11.858;2022-07-22T08:06:04;9.70;;;6.63;;
16822;SDS011;8528;49.976;11.858;2022-07-22T08:08:31;8.07;;;6.77;;
16822;SDS011;8528;49.976;11.858;2022-07-22T08:10:58;7.07;;;6.27;;
16822;SDS011;8528;49.976;11.858;2022-07-22T08:13:26;8.20;;;6.37;;
16822;SDS011;8528;49.976;11.858;2022-07-22T08:15:54;7.53;;;6.70;;
16822;SDS011;8528;49.976;11.858;2022-07-22T08:18:29;8.10;;;6.33;;
16822;SDS011;8528;49.976;11.858;2022-07-22T08:20:57;7.97;;;6.50;;
16822;SDS011;8528;49.976;11.858;2022-07-22T08:23:29;8.77;;;7.27;;
16822;SDS011;8528;49.976;11.858;2022-07-22T08:25:59;7.20;;;5.70;;
16822;SDS011;8528;49.976;11.858;2022-07-22T08:28:26;6.77;;;6.07;;
16822;SDS011;8528;49.976;11.858;2022-07-22T08:30:53;7.80;;;5.83;;
16822;SDS011;8528;49.976;11.858;2022-07-22T08:33:20;6.67;;;6.00;;
16822;SDS011;8528;49.976;11.858;2022-07-22T08:35:50;7.33;;;6.37;;
16822;SDS011;8528;49.976;11.858;2022-07-22T08:38:17;7.13;;;6.43;;
16822;SDS011;8528;49.976;11.858;2022-07-22T08:40:44;7.43;;;6.63;;
16822;SDS011;8528;49.976;11.858;2022-07-22T08:43:11;7.77;;;6.90;;
16822;SDS011;8528;49.976;11.858;2022-07-22T08:45:41;5.93;;;5.43;;
16822;SDS011;8528;49.976;11.858;2022-07-22T08:48:08;7.93;;;5.93;;
16822;SDS011;8528;49.976;11.858;2022-07-22T08:50:36;7.20;;;6.07;;
16822;SDS011;8528;49.976;11.858;2022-07-22T08:53:11;8.53;;;6.20;;
16822;SDS011;8528;49.976;11.858;2022-07-22T08:55:45;7.37;;;6.67;;
16822;SDS011;8528;49.976;11.858;2022-07-22T08:58:16;6.97;;;6.27;;
16822;SDS011;8528;49.976;11.858;2022-07-22T09:00:43;8.07;;;5.97;;
16822;SDS011;8528;49.976;11.858;2022-07-22T09:03:20;8.97;;;5.80;;
16822;SDS011;8528;49.976;11.858;2022-07-22T09:05:51;7.27;;;6.07;;
16822;SDS011;8528;49.976;11.858;2022-07-22T09:08:19;7.80;;;6.93;;
16822;SDS011;8528;49.976;11.858;2022-07-22T09:10:49;8.67;;;6.50;;
16822;SDS011;8528;49.976;11.858;2022-07-22T09:13:17;7.10;;;6.40;;
16822;SDS011;8528;49.976;11.858;2022-07-22T09:15:51;7.30;;;6.63;;
16822;SDS011;8528;49.976;11.858;2022-07-22T09:18:23;7.10;;;6.40;;
16822;SDS011;8528;49.976;11.858;2022-07-22T09:20:54;8.97;;;6.30;;
16822;SDS011;8528;49.976;11.858;2022-07-22T09:23:28;8.77;;;6.60;;
16822;SDS011;8528;49.976;11.858;2022-07-22T09:26:06;7.47;;;6.27;;
16822;SDS011;8528;49.976;11.858;2022-07-22T09:28:36;9.57;;;7.23;;
16822;SDS011;8528;49.976;11.858;2022-07-22T09:31:05;7.37;;;6.30;;
16822;SDS011;8528;49.976;11.858;2022-07-22T09:33:33;8.57;;;6.67;;
16822;SDS011;8528;49.976;11.858;2022-07-22T09:36:10;7.67;;;6.17;;
16822;SDS011;8528;49.976;11.858;2022-07-22T09:38:37;8.50;;;7.30;;
16822;SDS011;8528;49.976;11.858;2022-07-22T09:41:04;9.30;;;7.67;;
16822;SDS011;8528;49.976;11.858;2022-07-22T09:43:40;6.97;;;6.30;;
16822;SDS011;8528;49.976;11.858;2022-07-22T09:46:07;7.30;;;6.30;;
16822;SDS011;8528;49.976;11.858;2022-07-22T09:48:38;7.17;;;6.57;;
16822;SDS011;8528;49.976;11.858;2022-07-22T09:51:06;21.17;;;14.50;;
16822;SDS011;8528;49.976;11.858;2022-07-22T09:53:33;9.57;;;6.20;;
16822;SDS011;8528;49.976;11.858;2022-07-22T09:56:04;6.67;;;6.00;;
16822;SDS011;8528;49.976;11.858;2022-07-22T09:58:32;9.67;;;6.07;;
16822;SDS011;8528;49.976;11.858;2022-07-22T10:01:00;7.03;;;6.40;;
16822;SDS011;8528;49.976;11.858;2022-07-22T10:03:31;8.02;;;6.32;;
16822;SDS011;8528;49.976;11.858;2022-07-22T10:06:01;7.13;;;6.17;;
16822;SDS011;8528;49.976;11.858;2022-07-22T10:08:32;5.60;;;5.20;;
16822;SDS011;8528;49.976;11.858;2022-07-22T10:11:01;7.28;;;6.10;;
16822;SDS011;8528;49.976;11.858;2022-07-22T10:13:34;6.73;;;6.00;;
16822;SDS011;8528;49.976;11.858;2022-07-22T10:16:05;6.70;;;6.00;;
16822;SDS011;8528;49.976;11.858;2022-07-22T10:18:39;8.70;;;6.40;;
16822;SDS011;8528;49.976;11.858;2022-07-22T10:21:14;27.83;;;19.13;;
16822;SDS011;8528;49.976;11.858;2022-07-22T10:26:46;6.30;;;5.57;;
16822;SDS011;8528;49.976;11.858;2022-07-22T10:43:08;7.60;;;6.03;;
16822;SDS011;8528;49.976;11.858;2022-07-22T10:48:13;6.37;;;5.77;;
16822;SDS011;8528;49.976;11.858;2022-07-22T10:51:05;6.38;;;5.63;;
16822;SDS011;8528;49.976;11.858;2022-07-22T10:56:25;5.82;;;5.22;;
16822;SDS011;8528;49.976;11.858;2022-07-22T10:58:55;6.30;;;5.72;;
16822;SDS011;8528;49.976;11.858;2022-07-22T11:01:23;6.40;;;5.30;;
16822;SDS011;8528;49.976;11.858;2022-07-22T11:03:55;5.82;;;5.35;;
16822;SDS011;8528;49.976;11.858;2022-07-22T11:06:43;6.43;;;5.82;;
16822;SDS011;8528;49.976;11.858;2022-07-22T11:09:13;7.57;;;5.22;;
16822;SDS011;8528;49.976;11.858;2022-07-22T11:11:43;6.18;;;5.57;;
16822;SDS011;8528;49.976;11.858;2022-07-22T11:14:21;6.13;;;5.45;;
16822;SDS011;8528;49.976;11.858;2022-07-22T11:17:00;6.43;;;5.78;;
16822;SDS011;8528;49.976;11.858;2022-07-22T11:19:32;6.57;;;5.95;;
16822;SDS011;8528;49.976;11.858;2022-07-22T11:22:00;6.38;;;5.68;;
16822;SDS011;8528;49.976;11.858;2022-07-22T11:24:35;7.78;;;5.53;;
16822;SDS011;8528;49.976;11.858;2022-07-22T11:27:03;6.43;;;5.82;;
16822;SDS011;8528;49.976;11.858;2022-07-22T11:29:36;6.97;;;6.28;;
16822;SDS011;8528;49.976;11.858;2022-07-22T11:32:14;6.80;;;6.20;;
16822;SDS011;8528;49.976;11.858;2022-07-22T11:34:45;6.28;;;5.53;;
16822;SDS011;8528;49.976;11.858;2022-07-22T11:37:13;7.72;;;5.75;;
16822;SDS011;8528;49.976;11.858;2022-07-22T11:40:00;6.53;;;5.93;;
16822;SDS011;8528;49.976;11.858;2022-07-22T11:42:30;7.20;;;6.50;;
16822;SDS011;8528;49.976;11.858;2022-07-22T11:44:57;7.00;;;6.13;;
16822;SDS011;8528;49.976;11.858;2022-07-22T11:47:24;8.25;;;5.90;;
16822;SDS011;8528;49.976;11.858;2022-07-22T11:49:51;6.63;;;6.03;;
16822;SDS011;8528;49.976;11.858;2022-07-22T11:52:21;7.00;;;6.32;;
16822;SDS011;8528;49.976;11.858;2022-07-22T11:54:48;7.32;;;6.47;;
16822;SDS011;8528;49.976;11.858;2022-07-22T11:57:16;6.30;;;5.43;;
16822;SDS011;8528;49.976;11.858;2022-07-22T11:59:43;7.13;;;6.43;;
16822;SDS011;8528;49.976;11.858;2022-07-22T12:02:13;6.55;;;5.90;;
16822;SDS011;8528;49.976;11.858;2022-07-22T12:04:40;6.85;;;5.88;;
16822;SDS011;8528;49.976;11.858;2022-07-22T12:07:10;6.18;;;5.68;;
16822;SDS011;8528;49.976;11.858;2022-07-22T12:09:37;6.63;;;5.95;;
16822;SDS011;8528;49.976;11.858;2022-07-22T12:12:07;6.50;;;5.80;;
16822;SDS011;8528;49.976;11.858;2022-07-22T12:14:34;5.88;;;5.28;;
16822;SDS011;8528;49.976;11.858;2022-07-22T12:19:53;7.05;;;5.45;;
16822;SDS011;8528;49.976;11.858;2022-07-22T12:22:21;7.35;;;5.97;;
16822;SDS011;8528;49.976;11.858;2022-07-22T12:24:57;6.65;;;6.05;;
16822;SDS011;8528;49.976;11.858;2022-07-22T12:27:26;6.97;;;6.28;;
16822;SDS011;8528;49.976;11.858;2022-07-22T12:29:53;7.30;;;5.68;;
16822;SDS011;8528;49.976;11.858;2022-07-22T12:35:02;7.05;;;5.60;;
16822;SDS011;8528;49.976;11.858;2022-07-22T12:37:42;6.07;;;5.47;;
16822;SDS011;8528;49.976;11.858;2022-07-22T12:40:20;6.10;;;5.60;;
16822;SDS011;8528;49.976;11.858;2022-07-22T12:43:09;7.65;;;5.85;;
16822;SDS011;8528;49.976;11.858;2022-07-22T12:45:36;6.63;;;5.60;;
16822;SDS011;8528;49.976;11.858;2022-07-22T12:48:06;6.72;;;5.72;;
16822;SDS011;8528;49.976;11.858;2022-07-22T12:50:57;6.32;;;5.68;;
16822;SDS011;8528;49.976;11.858;2022-07-22T12:53:25;7.35;;;6.00;;
16822;SDS011;8528;49.976;11.858;2022-07-22T12:55:56;6.65;;;5.95;;
16822;SDS011;8528;49.976;11.858;2022-07-22T12:58:29;7.85;;;6.15;;
16822;SDS011;8528;49.976;11.858;2022-07-22T13:01:00;6.50;;;5.88;;
16822;SDS011;8528;49.976;11.858;2022-07-22T13:03:28;6.05;;;5.40;;
16822;SDS011;8528;49.976;11.858;2022-07-22T13:05:57;6.03;;;5.38;;
16822;SDS011;8528;49.976;11.858;2022-07-22T13:08:27;6.85;;;5.30;;
16822;SDS011;8528;49.976;11.858;2022-07-22T13:11:12;6.78;;;5.85;;
16822;SDS011;8528;49.976;11.858;2022-07-22T13:13:40;5.50;;;5.00;;
16822;SDS011;8528;49.976;11.858;2022-07-22T13:16:09;5.95;;;5.15;;
16822;SDS011;8528;49.976;11.858;2022-07-22T13:18:39;7.53;;;4.88;;
16822;SDS011;8528;49.976;11.858;2022-07-22T13:21:07;5.25;;;4.55;;
16822;SDS011;8528;49.976;11.858;2022-07-22T13:23:33;7.15;;;4.80;;
16822;SDS011;8528;49.976;11.858;2022-07-22T13:26:00;5.38;;;4.70;;
16822;SDS011;8528;49.976;11.858;2022-07-22T13:28:27;5.95;;;5.45;;
16822;SDS011;8528;49.976;11.858;2022-07-22T13:30:54;6.03;;;5.47;;
16822;SDS011;8528;49.976;11.858;2022-07-22T13:33:21;7.72;;;5.88;;
16822;SDS011;8528;49.976;11.858;2022-07-22T13:35:50;5.95;;;5.45;;
16822;SDS011;8528;49.976;11.858;2022-07-22T13:38:17;7.20;;;5.30;;
16822;SDS011;8528;49.976;11.858;2022-07-22T13:40:44;6.00;;;5.40;;
16822;SDS011;8528;49.976;11.858;2022-07-22T13:43:21;6.40;;;5.00;;
16822;SDS011;8528;49.976;11.858;2022-07-22T13:45:49;6.63;;;5.07;;
16822;SDS011;8528;49.976;11.858;2022-07-22T13:48:17;6.70;;;5.60;;
16822;SDS011;8528;49.976;11.858;2022-07-22T13:50:45;6.55;;;5.20;;
16822;SDS011;8528;49.976;11.858;2022-07-22T13:53:13;5.70;;;5.05;;
16822;SDS011;8528;49.976;11.858;2022-07-22T13:55:40;5.53;;;5.03;;
16822;SDS011;8528;49.976;11.858;2022-07-22T13:58:07;5.90;;;5.30;;
16822;SDS011;8528;49.976;11.858;2022-07-22T14:00:37;9.77;;;5.82;;
16822;SDS011;8528;49.976;11.858;2022-07-22T14:03:06;7.18;;;5.75;;
16822;SDS011;8528;49.976;11.858;2022-07-22T14:05:34;6.45;;;5.38;;
16822;SDS011;8528;49.976;11.858;2022-07-22T14:08:00;10.00;;;5.70;;
16822;SDS011;8528;49.976;11.858;2022-07-22T14:10:28;5.47;;;4.97;;
16822;SDS011;8528;49.976;11.858;2022-07-22T14:12:55;6.22;;;5.60;;
16822;SDS011;8528;49.976;11.858;2022-07-22T14:15:24;5.32;;;4.82;;
16822;SDS011;8528;49.976;11.858;2022-07-22T14:17:51;4.65;;;4.25;;
16822;SDS011;8528;49.976;11.858;2022-07-22T14:20:18;6.88;;;5.60;;
16822;SDS011;8528;49.976;11.858;2022-07-22T14:22:45;5.50;;;5.00;;
16822;SDS011;8528;49.976;11.858;2022-07-22T14:25:12;5.53;;;4.93;;
16822;SDS011;8528;49.976;11.858;2022-07-22T14:27:39;5.28;;;4.80;;
16822;SDS011;8528;49.976;11.858;2022-07-22T14:30:06;6.22;;;4.55;;
16822;SDS011;8528;49.976;11.858;2022-07-22T14:32:33;5.57;;;4.93;;
16822;SDS011;8528;49.976;11.858;2022-07-22T14:35:00;5.50;;;5.00;;
16822;SDS011;8528;49.976;11.858;2022-07-22T14:37:28;5.30;;;4.80;;
16822;SDS011;8528;49.976;11.858;2022-07-22T14:39:55;4.82;;;4.43;;
16822;SDS011;8528;49.976;11.858;2022-07-22T14:42:24;5.07;;;4.63;;
16822;SDS011;8528;49.976;11.858;2022-07-22T14:44:52;5.35;;;4.82;;
16822;SDS011;8528;49.976;11.858;2022-07-22T14:47:18;5.30;;;4.63;;
16822;SDS011;8528;49.976;11.858;2022-07-22T14:49:48;5.30;;;4.80;;
16822;SDS011;8528;49.976;11.858;2022-07-22T14:52:15;5.65;;;5.15;;
16822;SDS011;8528;49.976;11.858;2022-07-22T14:54:45;5.20;;;4.70;;
16822;SDS011;8528;49.976;11.858;2022-07-22T14:57:12;4.70;;;4.30;;
16822;SDS011;8528;49.976;11.858;2022-07-22T14:59:42;4.78;;;4.38;;
16822;SDS011;8528;49.976;11.858;2022-07-22T15:02:09;4.93;;;4.53;;
16822;SDS011;8528;49.976;11.858;2022-07-22T15:04:36;5.25;;;4.80;;
16822;SDS011;8528;49.976;11.858;2022-07-22T15:07:03;5.15;;;4.57;;
16822;SDS011;8528;49.976;11.858;2022-07-22T15:09:30;5.60;;;4.90;;
16822;SDS011;8528;49.976;11.858;2022-07-22T15:12:00;5.60;;;4.80;;
16822;SDS011;8528;49.976;11.858;2022-07-22T15:14:55;5.15;;;4.70;;
16822;SDS011;8528;49.976;11.858;2022-07-22T15:17:22;5.50;;;4.40;;
16822;SDS011;8528;49.976;11.858;2022-07-22T15:19:49;4.63;;;4.13;;
16822;SDS011;8528;49.976;11.858;2022-07-22T15:22:16;5.28;;;4.43;;
16822;SDS011;8528;49.976;11.858;2022-07-22T15:24:43;5.57;;;4.38;;
16822;SDS011;8528;49.976;11.858;2022-07-22T15:27:10;7.75;;;5.40;;